Main page
METAR-TAF:

METAR-TAF

Airports :

Hawarden Airport

Hawarden, Wales

latitude: 53-10N, longitude: 002-59W, elevation: 10 m

Current weather observation

The report was made 4 hours and 24 minutes ago, at 18:20 UTC
Wind 8 kt from the Northwest, varying between West and North/Northwest
Temperature 9°C
Humidity 49%
Pressure 1009 hPa
Visibility 10 km or more
Few clouds at a height of 3600 ft, Cumulonimbus.

METAR: EGNR 051820Z 32008KT 280V340 9999 FEW036CB 09/M01 Q1009

Time: 23:44 (22:44 UTC)

Forecast

The report was made 5 hours and 39 minutes ago, at 17:05 UTC
Forecast valid from 05 at 18 UTC to 05 at 20 UTC
Wind 12 kt from the Northwest
Visibility 10 km or more
Scattered clouds at a height of 3800 ft
Probability 30% :
Temporary
from 05 at 18 UTC to 05 at 20 UTC
Visibility: 7000 m
rain showers

TAF: EGNR 051705Z 0518/0520 32012KT 9999 SCT038 PROB30 TEMPO 0518/0520 7000 SHRA

Weather observations and forecasts of more than 4000 airports (METAR and TAF reports).

The available stations are represented by yellow and red dots on the map.

Hover mouse over dot to see the name of the station.

Then click to see weather observations and forecasts.

To change the map : click on the green buttons with a black cross to zoom in, on the green button with a dash to zoom out, or on the green arrows for adjacent maps.


METAR-TAF: